createdAt,value
2018-12-09T00:00:14.079Z,65.77
2018-12-09T00:02:50.506Z,70.40
2018-12-09T00:05:26.837Z,71.60
2018-12-09T00:08:03.049Z,72.93
2018-12-09T00:10:39.539Z,60.33
2018-12-09T00:13:15.751Z,59.73
2018-12-09T00:15:52.028Z,66.33
2018-12-09T00:18:28.237Z,101.40
2018-12-09T00:21:04.711Z,85.13
2018-12-09T00:23:41.027Z,88.50
2018-12-09T00:26:17.375Z,94.83
2018-12-09T00:28:53.699Z,88.43
2018-12-09T00:31:30.623Z,87.73
2018-12-09T00:34:06.827Z,82.07
2018-12-09T00:36:43.355Z,77.73
2018-12-09T00:39:19.631Z,70.60
2018-12-09T00:41:55.920Z,58.73
2018-12-09T00:44:32.321Z,56.73
2018-12-09T00:47:08.571Z,56.70
2018-12-09T00:49:44.789Z,63.37
2018-12-09T00:52:21.275Z,59.80
2018-12-09T00:54:57.465Z,61.63
2018-12-09T00:57:33.721Z,65.10
2018-12-09T01:00:13.098Z,68.87
2018-12-09T01:02:49.569Z,65.83
2018-12-09T01:05:25.915Z,72.03
2018-12-09T01:08:02.232Z,70.77
2018-12-09T01:10:38.478Z,71.37
2018-12-09T01:13:14.818Z,69.87
2018-12-09T01:15:51.038Z,71.63
2018-12-09T01:18:27.506Z,73.17
2018-12-09T01:21:03.869Z,70.83
2018-12-09T01:23:40.242Z,77.47
2018-12-09T01:26:16.636Z,76.07
2018-12-09T01:28:52.728Z,74.63
2018-12-09T01:31:29.008Z,66.97
2018-12-09T01:34:05.468Z,64.23
2018-12-09T01:36:41.746Z,64.57
2018-12-09T01:39:18.133Z,62.27
2018-12-09T01:41:54.459Z,59.37
2018-12-09T01:44:30.989Z,65.60
2018-12-09T01:47:07.250Z,67.47
2018-12-09T01:49:43.621Z,68.27
2018-12-09T01:52:19.971Z,65.63
2018-12-09T01:54:56.320Z,71.87
2018-12-09T01:57:32.601Z,74.63
2018-12-09T02:00:09.037Z,71.80
2018-12-09T02:02:45.378Z,67.53
2018-12-09T02:05:21.846Z,66.87
2018-12-09T02:07:58.400Z,67.17
2018-12-09T02:10:34.803Z,71.93
2018-12-09T02:13:11.119Z,70.57
2018-12-09T02:15:47.615Z,72.13
2018-12-09T02:18:23.706Z,71.23
2018-12-09T02:20:59.960Z,64.17
2018-12-09T02:23:36.271Z,57.93
2018-12-09T02:26:12.607Z,56.53
2018-12-09T02:28:48.927Z,60.43
2018-12-09T02:31:25.305Z,60.10
2018-12-09T02:34:02.485Z,59.43
2018-12-09T02:36:39.337Z,60.00
2018-12-09T02:39:15.573Z,59.67
2018-12-09T02:41:51.940Z,59.43
2018-12-09T02:44:28.257Z,65.20
2018-12-09T02:47:04.527Z,70.23
2018-12-09T02:49:40.750Z,68.13
2018-12-09T02:52:17.164Z,76.80
2018-12-09T02:54:53.468Z,70.50
2018-12-09T02:57:29.921Z,80.23
2018-12-09T03:00:07.046Z,78.93
2018-12-09T03:02:43.282Z,70.77
2018-12-09T03:05:19.674Z,70.97
2018-12-09T03:07:56.203Z,68.67
2018-12-09T03:10:32.558Z,70.10
2018-12-09T03:13:08.843Z,70.80
2018-12-09T03:15:45.054Z,74.77
2018-12-09T03:18:21.475Z,68.47
2018-12-09T03:20:57.838Z,74.83
2018-12-09T03:23:34.083Z,78.63
2018-12-09T03:26:10.435Z,78.50
2018-12-09T03:28:46.771Z,81.03
2018-12-09T03:31:23.038Z,81.10
2018-12-09T03:33:59.403Z,75.63
2018-12-09T03:36:35.743Z,79.53
2018-12-09T03:39:12.116Z,87.40
2018-12-09T03:41:48.400Z,101.73
2018-12-09T03:44:24.887Z,98.00
2018-12-09T03:47:01.128Z,97.77
2018-12-09T03:49:37.521Z,92.90
2018-12-09T03:52:13.860Z,90.57
2018-12-09T03:54:50.366Z,84.80
2018-12-09T03:57:26.814Z,86.10
2018-12-09T04:00:03.351Z,87.07
2018-12-09T04:02:39.738Z,87.23
2018-12-09T04:05:16.117Z,81.63
2018-12-09T04:07:52.386Z,74.47
2018-12-09T04:10:28.812Z,71.17
2018-12-09T04:13:05.277Z,78.13
2018-12-09T04:15:41.869Z,81.63
2018-12-09T04:18:18.344Z,86.17
2018-12-09T04:20:54.731Z,98.43
2018-12-09T04:23:31.183Z,90.63
2018-12-09T04:26:07.519Z,88.87
2018-12-09T04:28:43.687Z,88.03
2018-12-09T04:31:23.183Z,96.27
2018-12-09T04:33:59.516Z,88.43
2018-12-09T04:36:35.931Z,93.67
2018-12-09T04:39:12.263Z,87.13
2018-12-09T04:41:48.573Z,80.07
2018-12-09T04:44:24.819Z,75.17
2018-12-09T04:47:01.259Z,91.70
2018-12-09T04:49:37.488Z,99.10
2018-12-09T04:52:13.996Z,102.70
2018-12-09T04:54:50.494Z,113.23
2018-12-09T04:57:26.831Z,94.43
2018-12-09T05:00:13.829Z,90.27
2018-12-09T05:02:50.195Z,84.07
2018-12-09T05:05:26.398Z,84.33
2018-12-09T05:08:02.731Z,89.53
2018-12-09T05:10:38.989Z,99.73
2018-12-09T05:13:15.499Z,141.83
2018-12-09T05:15:51.887Z,129.70
2018-12-09T05:18:28.189Z,117.47
2018-12-09T05:21:04.432Z,115.83
2018-12-09T05:23:40.926Z,110.20
2018-12-09T05:26:17.266Z,108.30
2018-12-09T05:28:53.554Z,87.90
2018-12-09T05:31:29.718Z,89.83
2018-12-09T05:34:06.328Z,89.50
2018-12-09T05:36:42.689Z,91.93
2018-12-09T05:39:19.201Z,95.57
2018-12-09T05:41:55.369Z,98.37
2018-12-09T05:44:31.771Z,106.00
2018-12-09T05:47:08.127Z,98.23
2018-12-09T05:49:44.467Z,127.17
2018-12-09T05:52:20.691Z,186.13
2018-12-09T05:54:57.093Z,95.30
2018-12-09T05:57:33.461Z,97.53
2018-12-09T06:00:10.276Z,101.83
2018-12-09T06:02:53.831Z,84.30
2018-12-09T06:05:30.260Z,84.30
2018-12-09T06:08:06.539Z,76.23
2018-12-09T06:10:42.914Z,86.57
2018-12-09T06:13:19.446Z,89.60
2018-12-09T06:15:55.785Z,102.37
2018-12-09T06:18:32.172Z,98.37
2018-12-09T06:21:09.106Z,99.43
2018-12-09T06:23:45.485Z,104.03
2018-12-09T06:26:21.887Z,115.40
2018-12-09T06:28:58.251Z,134.03
2018-12-09T06:31:34.649Z,139.87
2018-12-09T06:34:10.866Z,136.63
2018-12-09T06:36:47.557Z,146.80
2018-12-09T06:39:23.763Z,139.33
2018-12-09T06:42:00.728Z,156.20
2018-12-09T06:44:36.498Z,151.93
2018-12-09T06:47:12.824Z,190.40
2018-12-09T06:49:49.186Z,120.27
2018-12-09T06:52:25.592Z,106.13
2018-12-09T06:55:02.216Z,106.00
2018-12-09T06:57:38.579Z,89.60
2018-12-09T07:00:14.927Z,89.57
2018-12-09T07:02:51.218Z,117.03
2018-12-09T07:05:27.660Z,127.77
2018-12-09T07:08:04.028Z,237.13
2018-12-09T07:10:42.101Z,161.97
2018-12-09T07:13:18.838Z,114.97
2018-12-09T07:15:55.400Z,102.43
2018-12-09T07:18:32.161Z,98.47
2018-12-09T07:21:08.833Z,100.93
2018-12-09T07:23:45.277Z,101.20
2018-12-09T07:26:21.663Z,114.17
2018-12-09T07:28:58.005Z,138.23
2018-12-09T07:31:34.332Z,163.17
2018-12-09T07:34:10.760Z,167.20
2018-12-09T07:36:46.819Z,189.83
2018-12-09T07:39:23.296Z,191.30
2018-12-09T07:41:59.727Z,155.33
2018-12-09T07:44:36.042Z,157.67
2018-12-09T07:47:12.305Z,182.93
2018-12-09T07:49:48.736Z,200.03
2018-12-09T07:52:25.082Z,148.50
2018-12-09T07:55:01.377Z,147.03
2018-12-09T07:57:37.582Z,102.87
2018-12-09T08:00:13.947Z,200.03
2018-12-09T08:02:51.130Z,144.73
2018-12-09T08:05:27.346Z,95.27
2018-12-09T08:08:03.543Z,93.47
2018-12-09T08:10:40.160Z,97.00
2018-12-09T08:13:16.454Z,97.30
2018-12-09T08:15:52.696Z,81.53
2018-12-09T08:18:29.153Z,68.50
2018-12-09T08:21:05.580Z,90.20
2018-12-09T08:23:41.795Z,71.00
2018-12-09T08:26:18.120Z,81.57
2018-12-09T08:28:54.341Z,76.67
2018-12-09T08:31:30.854Z,54.40
2018-12-09T08:34:06.981Z,64.57
2018-12-09T08:36:43.279Z,65.87
2018-12-09T08:39:19.475Z,68.23
2018-12-09T08:41:55.902Z,67.13
2018-12-09T08:44:32.097Z,78.70
2018-12-09T08:47:09.383Z,85.03
2018-12-09T08:49:53.123Z,87.70
2018-12-09T08:52:29.555Z,85.30
2018-12-09T08:55:06.138Z,86.67
2018-12-09T08:57:42.272Z,79.50
2018-12-09T09:00:18.523Z,76.53
2018-12-09T09:02:55.859Z,45.90
2018-12-09T09:05:32.089Z,74.20
2018-12-09T09:08:08.778Z,66.10
2018-12-09T09:10:49.315Z,67.00
2018-12-09T09:13:25.857Z,49.10
2018-12-09T09:16:02.220Z,80.33
2018-12-09T09:18:38.546Z,119.00
2018-12-09T09:21:14.852Z,113.63
2018-12-09T09:23:51.284Z,103.07
2018-12-09T09:26:27.511Z,100.00
2018-12-09T09:29:04.475Z,92.87
2018-12-09T09:31:40.576Z,73.77
2018-12-09T09:34:16.878Z,62.03
2018-12-09T09:36:53.539Z,59.27
2018-12-09T09:39:29.764Z,57.53
2018-12-09T09:42:06.470Z,63.17
2018-12-09T09:44:43.394Z,78.20
2018-12-09T09:47:19.599Z,78.80
2018-12-09T09:49:56.088Z,89.77
2018-12-09T09:52:35.108Z,78.20
2018-12-09T09:55:12.652Z,87.80
2018-12-09T09:57:48.878Z,116.60
2018-12-09T10:00:25.462Z,107.87
2018-12-09T10:03:02.316Z,86.77
2018-12-09T10:05:38.890Z,62.27
2018-12-09T10:08:15.035Z,60.03
2018-12-09T10:10:51.432Z,54.07
2018-12-09T10:13:27.668Z,64.10
2018-12-09T10:16:04.111Z,49.13
2018-12-09T10:18:40.475Z,47.83
2018-12-09T10:21:17.271Z,50.80
2018-12-09T10:23:53.485Z,53.20
2018-12-09T10:26:36.465Z,56.97
2018-12-09T10:29:06.258Z,71.63
2018-12-09T10:31:42.672Z,48.60
2018-12-09T10:34:18.911Z,37.17
2018-12-09T10:36:55.329Z,56.20
2018-12-09T10:39:31.762Z,40.57
2018-12-09T10:42:11.587Z,59.30
2018-12-09T10:44:47.898Z,56.20
2018-12-09T10:47:24.582Z,54.73
2018-12-09T10:50:00.764Z,48.90
2018-12-09T10:52:37.198Z,28.70
2018-12-09T10:55:13.663Z,42.80
2018-12-09T10:57:50.037Z,50.27
2018-12-09T11:00:31.144Z,30.17
2018-12-09T11:03:07.432Z,32.60
2018-12-09T11:05:43.755Z,29.83
2018-12-09T11:08:20.122Z,14.50
2018-12-09T11:10:56.529Z,17.17
2018-12-09T11:13:33.016Z,22.97
2018-12-09T11:16:09.226Z,28.53
2018-12-09T11:18:45.701Z,167.83
2018-12-09T11:21:21.981Z,27.63
2018-12-09T11:23:58.357Z,24.83
2018-12-09T11:26:34.752Z,19.27
2018-12-09T11:29:11.628Z,51.87
2018-12-09T11:31:47.943Z,71.40
2018-12-09T11:34:24.328Z,43.87
2018-12-09T11:37:00.526Z,22.83
2018-12-09T11:39:37.218Z,15.23
2018-12-09T11:42:16.352Z,73.63
2018-12-09T11:44:52.715Z,26.83
2018-12-09T11:47:29.222Z,31.50
2018-12-09T11:50:07.451Z,26.80
2018-12-09T11:52:43.673Z,29.97
2018-12-09T11:55:20.078Z,19.03
2018-12-09T11:57:56.292Z,20.00
2018-12-09T12:00:32.774Z,15.23
2018-12-09T12:03:09.017Z,15.90
2018-12-09T12:05:45.389Z,10.73
2018-12-09T12:08:21.718Z,15.43
2018-12-09T12:10:58.142Z,19.73
2018-12-09T12:13:34.534Z,20.30
2018-12-09T12:16:10.957Z,13.33
2018-12-09T12:18:47.922Z,14.30
2018-12-09T12:21:24.338Z,18.43
2018-12-09T12:24:00.548Z,19.40
2018-12-09T12:26:36.983Z,39.03
2018-12-09T12:29:13.227Z,38.07
2018-12-09T12:31:49.987Z,19.33
2018-12-09T12:34:26.343Z,21.30
2018-12-09T12:37:02.737Z,27.20
2018-12-09T12:39:39.171Z,15.63
2018-12-09T12:42:15.875Z,19.80
2018-12-09T12:44:52.167Z,17.73
2018-12-09T12:47:28.586Z,16.57
2018-12-09T12:50:05.338Z,19.07
2018-12-09T12:52:41.768Z,25.50
2018-12-09T12:55:18.025Z,22.77
2018-12-09T12:57:54.259Z,13.73
2018-12-09T13:00:30.508Z,15.53
2018-12-09T13:03:06.931Z,10.77
2018-12-09T13:05:43.284Z,13.80
2018-12-09T13:08:19.624Z,16.40
2018-12-09T13:10:55.771Z,24.23
2018-12-09T13:13:32.481Z,29.87
2018-12-09T13:16:08.809Z,13.33
2018-12-09T13:18:45.244Z,19.07
2018-12-09T13:21:21.560Z,15.90
2018-12-09T13:23:57.989Z,9.60
2018-12-09T13:26:34.296Z,12.23
2018-12-09T13:29:11.080Z,6.10
2018-12-09T13:31:47.369Z,13.20
2018-12-09T13:34:23.814Z,23.80
2018-12-09T13:37:00.042Z,16.53
2018-12-09T13:39:36.511Z,22.83
2018-12-09T13:42:12.901Z,14.43
2018-12-09T13:44:49.411Z,18.87
2018-12-09T13:47:25.773Z,21.57
2018-12-09T13:50:02.163Z,50.03
2018-12-09T13:52:38.472Z,33.53
2018-12-09T13:55:15.148Z,26.73
2018-12-09T13:57:51.583Z,32.47
2018-12-09T14:00:27.836Z,39.03
2018-12-09T14:03:04.268Z,18.73
2018-12-09T14:05:40.727Z,21.13
2018-12-09T14:08:16.952Z,26.77
2018-12-09T14:10:53.258Z,31.43
2018-12-09T14:13:29.507Z,26.53
2018-12-09T14:16:05.852Z,21.63
2018-12-09T14:18:42.027Z,20.87
2018-12-09T14:21:18.478Z,16.60
2018-12-09T14:23:54.666Z,13.77
2018-12-09T14:26:31.070Z,11.23
2018-12-09T14:29:07.534Z,14.23
2018-12-09T14:31:44.112Z,14.47
2018-12-09T14:34:20.408Z,27.47
2018-12-09T14:36:56.692Z,37.63
2018-12-09T14:39:34.336Z,58.00
2018-12-09T14:42:09.360Z,39.37
2018-12-09T14:44:45.653Z,36.53
2018-12-09T14:47:23.576Z,32.73
2018-12-09T14:50:00.376Z,35.00
2018-12-09T14:52:37.078Z,29.70
2018-12-09T14:55:13.696Z,38.53
2018-12-09T14:57:50.865Z,33.03
2018-12-09T15:00:28.628Z,21.43
2018-12-09T15:03:05.893Z,23.83
2018-12-09T15:05:42.704Z,35.23
2018-12-09T15:08:19.647Z,51.67
2018-12-09T15:10:56.343Z,37.53
2018-12-09T15:13:33.077Z,43.07
2018-12-09T15:16:09.926Z,43.80
2018-12-09T15:18:46.854Z,39.10
2018-12-09T15:21:23.646Z,20.57
2018-12-09T15:24:00.572Z,31.97
2018-12-09T15:26:42.951Z,78.87
2018-12-09T15:29:19.847Z,38.67
2018-12-09T15:31:56.483Z,47.43
2018-12-09T15:34:33.400Z,54.77
2018-12-09T15:37:10.028Z,56.77
2018-12-09T15:39:46.900Z,51.53
2018-12-09T15:42:23.652Z,33.03
2018-12-09T15:45:00.285Z,65.27
2018-12-09T15:47:37.134Z,89.40
2018-12-09T15:50:13.919Z,61.63
2018-12-09T15:52:50.624Z,63.90
2018-12-09T15:55:27.312Z,81.17
2018-12-09T15:58:04.810Z,99.57
2018-12-09T16:00:46.795Z,78.37
2018-12-09T16:03:23.905Z,35.20
2018-12-09T16:06:00.773Z,40.43
2018-12-09T16:08:37.626Z,35.17
2018-12-09T16:11:14.167Z,49.10
2018-12-09T16:13:50.835Z,47.33
2018-12-09T16:16:28.848Z,52.07
2018-12-09T16:19:05.452Z,56.60
2018-12-09T16:21:42.688Z,58.27
2018-12-09T16:24:19.401Z,65.00
2018-12-09T16:26:56.217Z,65.77
2018-12-09T16:29:33.087Z,80.03
2018-12-09T16:32:09.826Z,85.13
2018-12-09T16:34:46.442Z,89.53
2018-12-09T16:37:23.084Z,100.60
2018-12-09T16:40:02.716Z,123.23
2018-12-09T16:42:40.786Z,102.03
2018-12-09T16:45:17.759Z,78.60
2018-12-09T16:47:54.590Z,84.80
2018-12-09T16:50:32.838Z,84.53
2018-12-09T16:53:10.202Z,74.77
2018-12-09T16:55:49.423Z,78.93
2018-12-09T16:58:25.799Z,65.43
2018-12-09T17:01:03.816Z,67.30
2018-12-09T17:03:41.323Z,66.97
2018-12-09T17:06:17.965Z,73.07
2018-12-09T17:08:49.321Z,179.77
2018-12-09T17:11:20.935Z,190.70
2018-12-09T17:13:52.732Z,58.80
2018-12-09T17:16:24.748Z,79.63
2018-12-09T17:18:56.444Z,64.00
2018-12-09T17:21:28.332Z,76.37
2018-12-09T17:24:00.078Z,96.67
2018-12-09T17:26:32.325Z,108.07
2018-12-09T17:29:05.519Z,108.30
2018-12-09T17:31:35.991Z,99.73
2018-12-09T17:34:07.727Z,90.10
2018-12-09T17:36:39.411Z,90.27
2018-12-09T17:39:11.969Z,95.93
2018-12-09T17:41:44.724Z,97.37
2018-12-09T17:44:16.993Z,92.03
2018-12-09T17:46:48.972Z,81.40
2018-12-09T17:49:20.638Z,47.80
2018-12-09T17:51:52.897Z,46.77
2018-12-09T17:54:24.400Z,53.93
2018-12-09T17:56:56.134Z,65.80
2018-12-09T17:59:28.756Z,87.97
2018-12-09T18:02:00.516Z,99.17
2018-12-09T18:04:36.457Z,100.60
2018-12-09T18:07:07.971Z,140.97
2018-12-09T18:09:39.334Z,111.47
2018-12-09T18:12:10.600Z,111.70
2018-12-09T18:14:43.490Z,166.13
2018-12-09T18:17:14.775Z,110.07
2018-12-09T18:19:46.039Z,135.60
2018-12-09T18:22:17.404Z,140.97
2018-12-09T18:24:51.387Z,131.00
2018-12-09T18:27:27.063Z,164.73
2018-12-09T18:29:59.038Z,132.07
2018-12-09T18:32:30.720Z,149.47
2018-12-09T18:35:02.306Z,197.93
2018-12-09T18:37:34.899Z,79.90
2018-12-09T18:40:08.751Z,107.43
2018-12-09T18:42:40.852Z,83.87
2018-12-09T18:45:13.021Z,73.70
2018-12-09T18:47:46.126Z,111.33
2018-12-09T18:50:18.094Z,61.60
2018-12-09T18:52:50.089Z,67.67
2018-12-09T18:55:22.592Z,57.03
2018-12-09T18:57:54.456Z,68.97
2018-12-09T19:00:28.585Z,76.80
2018-12-09T19:03:00.547Z,80.47
2018-12-09T19:05:32.407Z,120.43
2018-12-09T19:08:05.356Z,108.40
2018-12-09T19:10:37.299Z,134.27
2018-12-09T19:13:09.118Z,141.80
2018-12-09T19:15:40.692Z,144.77
2018-12-09T19:18:11.915Z,123.27
2018-12-09T19:20:43.166Z,114.13
2018-12-09T19:23:14.381Z,125.83
2018-12-09T19:25:45.699Z,120.07
2018-12-09T19:28:17.110Z,111.77
2018-12-09T19:30:48.590Z,152.43
2018-12-09T19:33:19.640Z,101.00
2018-12-09T19:35:50.902Z,88.43
2018-12-09T19:38:22.043Z,62.47
2018-12-09T19:40:53.305Z,74.10
2018-12-09T19:43:24.463Z,68.37
2018-12-09T19:45:55.709Z,120.00
2018-12-09T19:48:26.906Z,105.87
2018-12-09T19:50:58.110Z,122.50
2018-12-09T19:53:29.501Z,88.93
2018-12-09T19:56:00.834Z,107.77
2018-12-09T19:58:31.994Z,120.73
2018-12-09T20:01:03.722Z,101.67
2018-12-09T20:03:34.947Z,152.93
2018-12-09T20:06:06.272Z,76.57
2018-12-09T20:08:37.525Z,72.07
2018-12-09T20:11:08.826Z,69.73
2018-12-09T20:13:40.018Z,87.77
2018-12-09T20:16:11.451Z,95.87
2018-12-09T20:18:42.584Z,91.73
2018-12-09T20:21:13.836Z,93.90
2018-12-09T20:23:45.084Z,95.30
2018-12-09T20:26:16.476Z,96.40
2018-12-09T20:28:47.718Z,95.70
2018-12-09T20:31:18.914Z,80.70
2018-12-09T20:33:50.144Z,86.23
2018-12-09T20:36:21.402Z,123.63
2018-12-09T20:38:52.577Z,100.03
2018-12-09T20:41:24.033Z,125.63
2018-12-09T20:43:55.203Z,126.10
2018-12-09T20:46:26.476Z,135.10
2018-12-09T20:48:57.633Z,116.17
2018-12-09T20:51:28.846Z,98.77
2018-12-09T20:53:59.966Z,98.17
2018-12-09T20:56:31.325Z,95.03
2018-12-09T20:59:07.508Z,118.20
2018-12-09T21:01:38.738Z,114.93
2018-12-09T21:04:09.884Z,114.60
2018-12-09T21:06:41.102Z,113.50
2018-12-09T21:09:12.275Z,101.63
2018-12-09T21:11:43.503Z,112.67
2018-12-09T21:14:14.646Z,101.70
2018-12-09T21:16:46.021Z,110.00
2018-12-09T21:19:17.430Z,101.17
2018-12-09T21:21:48.695Z,106.67
2018-12-09T21:24:25.835Z,76.33
2018-12-09T21:26:51.391Z,86.20
2018-12-09T21:29:22.641Z,85.33
2018-12-09T21:31:54.108Z,96.50
2018-12-09T21:34:25.996Z,90.73
2018-12-09T21:36:57.341Z,94.53
2018-12-09T21:40:01.629Z,122.00
2018-12-09T21:42:33.038Z,167.97
2018-12-09T21:45:04.317Z,153.23
2018-12-09T21:47:35.525Z,171.83
2018-12-09T21:50:07.312Z,125.23
2018-12-09T21:52:38.565Z,111.30
2018-12-09T21:55:09.686Z,98.53
2018-12-09T21:57:41.238Z,98.03
2018-12-09T22:00:12.458Z,99.27
2018-12-09T22:02:43.638Z,112.77
2018-12-09T22:05:15.783Z,104.67
2018-12-09T22:07:47.152Z,93.13
2018-12-09T22:10:18.287Z,115.23
2018-12-09T22:12:49.524Z,108.87
2018-12-09T22:15:21.556Z,110.13
2018-12-09T22:17:52.817Z,158.70
2018-12-09T22:20:24.023Z,147.30
2018-12-09T22:23:07.029Z,143.50
2018-12-09T22:25:38.147Z,104.97
2018-12-09T22:28:09.336Z,101.77
2018-12-09T22:30:40.604Z,103.83
2018-12-09T22:33:11.807Z,95.50
2018-12-09T22:35:42.949Z,89.63
2018-12-09T22:38:14.195Z,78.73
2018-12-09T22:40:45.328Z,69.87
2018-12-09T22:43:16.547Z,63.77
2018-12-09T22:45:47.710Z,52.33
2018-12-09T22:48:18.963Z,62.33
2018-12-09T22:50:50.078Z,87.87
2018-12-09T22:53:21.282Z,67.97
2018-12-09T22:55:52.432Z,51.33
2018-12-09T22:59:47.680Z,46.07
2018-12-09T23:02:24.072Z,52.67
2018-12-09T23:04:55.221Z,58.03
2018-12-09T23:07:31.282Z,50.60
2018-12-09T23:10:02.600Z,52.97
2018-12-09T23:12:33.740Z,53.93
2018-12-09T23:15:05.022Z,57.13
2018-12-09T23:17:36.184Z,69.67
2018-12-09T23:20:07.861Z,61.27
2018-12-09T23:22:39.050Z,82.23
2018-12-09T23:25:10.293Z,71.67
2018-12-09T23:27:41.492Z,64.17
2018-12-09T23:30:12.726Z,60.37
2018-12-09T23:32:46.423Z,66.20
2018-12-09T23:35:17.638Z,64.93
2018-12-09T23:37:48.792Z,52.63
2018-12-09T23:40:20.086Z,50.00
2018-12-09T23:42:51.518Z,52.07
2018-12-09T23:45:22.720Z,52.43
2018-12-09T23:47:53.892Z,49.93
2018-12-09T23:50:25.221Z,55.17
2018-12-09T23:52:56.393Z,55.67
2018-12-09T23:55:27.628Z,61.27
2018-12-09T23:57:58.785Z,65.87
